Time;durP1;ratioP1;P1;durP2;ratioP2;P2;SDS_P1;SDS_P2;PMS_P1;PMS_P2;Temp;Humidity;BMP_temperature;BMP_pressure;BME280_temperature;BME280_humidity;BME280_pressure;Samples;Min_cycle;Max_cycle;Signal;HPM_P1;HPM_P2
2022/09/01 00:02:27;;;;;;;4.37;2.35;;;;;;;12.29;100.00;99191.45;2187851;81;21019;-87
2022/09/01 00:05:28;;;;;;;2.77;2.12;;;;;;;12.27;100.00;99188.20;2187788;81;21115;-87
2022/09/01 00:08:29;;;;;;;4.78;2.60;;;;;;;12.28;100.00;99186.37;2187766;81;21012;-88
2022/09/01 00:11:30;;;;;;;4.25;2.42;;;;;;;12.28;100.00;99186.37;2187504;81;21063;-87
2022/09/01 00:14:31;;;;;;;2.20;2.00;;;;;;;12.26;100.00;99187.88;2187346;81;20976;-88
2022/09/01 00:17:32;;;;;;;3.77;2.37;;;;;;;12.27;100.00;99189.50;2187321;81;21010;-87
2022/09/01 00:20:33;;;;;;;5.20;2.55;;;;;;;12.25;100.00;99183.59;2187452;81;21555;-88
2022/09/01 00:23:34;;;;;;;2.87;2.25;;;;;;;12.23;100.00;99181.16;2187346;81;21020;-87
2022/09/01 00:26:34;;;;;;;2.17;1.98;;;;;;;12.19;100.00;99182.52;2187517;81;20937;-87
2022/09/01 00:29:35;;;;;;;2.12;2.00;;;;;;;12.18;100.00;99189.27;2187769;81;21004;-87
2022/09/01 00:32:36;;;;;;;5.10;2.62;;;;;;;12.17;100.00;99186.32;2187840;81;21059;-88
2022/09/01 00:35:37;;;;;;;3.83;2.00;;;;;;;12.15;100.00;99186.47;2187874;81;20961;-88
2022/09/01 00:38:37;;;;;;;3.87;2.22;;;;;;;12.15;100.00;99184.34;2187802;81;21023;-87
2022/09/01 00:41:38;;;;;;;2.65;1.92;;;;;;;12.16;100.00;99189.91;2187721;81;21007;-86
2022/09/01 00:44:39;;;;;;;2.42;1.98;;;;;;;12.14;100.00;99188.78;2187733;81;21047;-87
2022/09/01 00:47:40;;;;;;;3.12;2.92;;;;;;;12.13;100.00;99184.53;2188468;81;20990;-87
2022/09/01 00:50:41;;;;;;;5.80;2.52;;;;;;;12.13;100.00;99181.09;2187702;81;20960;-87
2022/09/01 00:53:41;;;;;;;3.47;1.90;;;;;;;12.11;100.00;99185.21;2187677;81;20991;-87
2022/09/01 00:56:42;;;;;;;4.42;2.25;;;;;;;12.08;100.00;99169.83;2187865;81;21039;-87
2022/09/01 00:59:43;;;;;;;2.65;2.15;;;;;;;12.07;100.00;99180.02;2187722;81;20949;-88
2022/09/01 01:02:43;;;;;;;3.37;2.47;;;;;;;12.08;100.00;99176.89;2187825;81;21012;-87
2022/09/01 01:05:47;;;;;;;4.50;2.27;;;;;;;12.06;100.00;99178.85;2187827;81;21015;-87
2022/09/01 01:08:59;;;;;;;5.70;2.37;;;;;;;12.05;100.00;99184.59;2187930;81;21487;-87
2022/09/01 01:12:00;;;;;;;4.80;2.58;;;;;;;12.04;100.00;99178.22;2187830;81;20999;-88
2022/09/01 01:15:02;;;;;;;5.50;2.47;;;;;;;12.02;100.00;99182.34;2187664;81;21016;-87
2022/09/01 01:18:03;;;;;;;2.67;2.30;;;;;;;12.01;100.00;99178.58;2187848;81;20972;-88
2022/09/01 01:24:22;;;;;;;2.67;2.47;;;;;;;11.94;100.00;99181.09;2187251;81;21020;-86
2022/09/01 01:27:23;;;;;;;4.15;2.83;;;;;;;11.89;100.00;99180.33;2187647;81;22145;-88
2022/09/01 01:30:24;;;;;;;4.40;2.85;;;;;;;11.87;100.00;99176.22;2187689;81;21047;-87
2022/09/01 01:33:25;;;;;;;3.92;2.77;;;;;;;11.86;100.00;99178.53;2187532;81;20949;-88
2022/09/01 01:36:31;;;;;;;3.22;2.87;;;;;;;11.85;100.00;99181.66;2187281;81;20973;-88
2022/09/01 01:39:28;;;;;;;3.77;2.25;;;;;;;11.77;100.00;99168.56;2187036;81;21092;-87
2022/09/01 01:42:30;;;;;;;4.90;2.90;;;;;;;11.77;100.00;99168.56;2187779;81;21011;-87
2022/09/01 01:45:30;;;;;;;3.80;2.58;;;;;;;11.81;100.00;99175.14;2187628;81;21050;-87
2022/09/01 01:48:33;;;;;;;3.20;2.72;;;;;;;11.76;100.00;99172.18;2187642;81;21523;-87
2022/09/01 01:51:34;;;;;;;5.03;2.42;;;;;;;11.79;100.00;99173.13;2187974;81;21115;-88
2022/09/01 01:54:36;;;;;;;4.78;2.50;;;;;;;11.73;100.00;99162.55;2187767;81;21025;-89
2022/09/01 01:57:38;;;;;;;2.27;2.17;;;;;;;11.73;100.00;99162.55;2187759;81;21536;-88
2022/09/01 02:00:38;;;;;;;7.30;3.65;;;;;;;11.78;100.00;99170.69;2187785;81;21115;-88
2022/09/01 02:03:39;;;;;;;2.52;2.33;;;;;;;11.76;100.00;99168.74;2187855;81;21003;-88
2022/09/01 02:06:44;;;;;;;4.33;2.83;;;;;;;11.77;100.00;99165.94;2187616;81;20985;-88
2022/09/01 02:09:46;;;;;;;2.62;2.42;;;;;;;11.75;100.00;99166.62;2175101;81;21125;-88
2022/09/01 02:12:48;;;;;;;2.90;2.27;;;;;;;11.73;100.00;99165.98;2187747;81;21076;-88
2022/09/01 02:15:48;;;;;;;3.62;2.72;;;;;;;11.71;100.00;99171.91;2187654;81;21586;-88
2022/09/01 02:18:51;;;;;;;2.90;2.60;;;;;;;11.63;100.00;99170.16;2187611;81;21055;-89
2022/09/01 02:21:55;;;;;;;3.98;2.37;;;;;;;11.61;100.00;99174.77;2187823;81;21576;-88
2022/09/01 02:24:56;;;;;;;3.10;2.70;;;;;;;11.59;100.00;99174.10;2187770;81;21043;-89
2022/09/01 02:27:57;;;;;;;3.60;2.62;;;;;;;11.59;100.00;99176.73;2187604;81;21042;-89
2022/09/01 02:31:02;;;;;;;3.85;2.30;;;;;;;11.59;100.00;99174.60;2187480;81;21111;-88
2022/09/01 02:34:00;;;;;;;5.22;3.08;;;;;;;11.58;100.00;99173.78;2186995;81;21543;-88
2022/09/01 02:37:01;;;;;;;6.15;3.08;;;;;;;11.58;100.00;99171.16;2187755;81;21469;-88
2022/09/01 02:40:02;;;;;;;4.80;2.35;;;;;;;11.58;100.00;99170.34;2187494;81;20996;-89
2022/09/01 02:43:03;;;;;;;2.75;2.50;;;;;;;11.60;100.00;99170.98;2187272;81;21456;-89
2022/09/01 02:46:05;;;;;;;5.60;2.85;;;;;;;11.61;100.00;99173.92;2187464;81;21076;-87
2022/09/01 02:49:06;;;;;;;5.92;2.65;;;;;;;11.60;100.00;99171.80;2187316;81;20976;-88
2022/09/01 02:52:07;;;;;;;4.45;2.72;;;;;;;11.60;100.00;99173.11;2187417;81;20995;-88
2022/09/01 02:55:08;;;;;;;4.35;2.70;;;;;;;11.60;100.00;99170.98;2187756;81;21043;-88
2022/09/01 02:58:13;;;;;;;2.67;2.47;;;;;;;11.62;100.00;99172.96;2187654;81;21023;-88
2022/09/01 03:01:11;;;;;;;4.08;3.10;;;;;;;11.56;100.00;99169.22;2187173;81;20995;-88
2022/09/01 03:04:12;;;;;;;3.00;2.77;;;;;;;11.56;100.00;99169.22;2187770;81;21148;-88
2022/09/01 03:07:13;;;;;;;3.37;3.05;;;;;;;11.56;100.00;99169.22;2187540;81;21579;-87
2022/09/01 03:10:15;;;;;;;6.60;2.87;;;;;;;11.54;100.00;99167.27;2187852;81;20987;-87
2022/09/01 03:13:16;;;;;;;2.85;2.30;;;;;;;11.52;100.00;99169.26;2187451;81;21690;-88
2022/09/01 03:16:17;;;;;;;5.83;2.65;;;;;;;11.48;100.00;99163.21;2187487;81;21000;-87
2022/09/01 03:19:18;;;;;;;2.62;2.27;;;;;;;11.48;100.00;99158.78;2187272;81;21111;-88
2022/09/01 03:22:19;;;;;;;4.28;3.08;;;;;;;11.48;100.00;99167.14;2187193;81;21014;-87
2022/09/01 03:25:20;;;;;;;3.08;2.77;;;;;;;11.45;100.00;99160.95;2187597;81;21011;-87
2022/09/01 03:28:21;;;;;;;2.83;2.60;;;;;;;11.44;100.00;99160.63;2187551;81;21432;-88
2022/09/01 03:31:25;;;;;;;3.70;3.12;;;;;;;11.44;100.00;99155.38;2187605;81;21191;-88
2022/09/01 03:34:25;;;;;;;5.33;2.83;;;;;;;11.43;100.00;99159.81;2187225;81;21076;-87
2022/09/01 03:37:26;;;;;;;2.95;2.65;;;;;;;11.45;100.00;99157.02;2185383;81;21003;-87
2022/09/01 03:40:27;;;;;;;4.12;2.65;;;;;;;11.44;100.00;99154.07;2187660;81;20953;-87
2022/09/01 03:43:28;;;;;;;3.95;2.80;;;;;;;11.42;100.00;99150.78;2187815;81;21031;-87
2022/09/01 03:46:31;;;;;;;5.17;2.70;;;;;;;11.42;100.00;99157.34;2187666;81;21019;-88
2022/09/01 03:49:32;;;;;;;4.35;2.70;;;;;;;11.42;100.00;99151.60;2187825;81;21076;-88
2022/09/01 03:52:33;;;;;;;3.60;2.50;;;;;;;11.42;100.00;99153.41;2187891;81;20957;-88
2022/09/01 03:55:34;;;;;;;4.28;2.80;;;;;;;11.43;100.00;99157.66;2187750;81;21076;-88
2022/09/01 03:58:35;;;;;;;2.98;2.70;;;;;;;11.39;100.00;99158.02;2187744;81;20973;-88
2022/09/01 04:01:42;;;;;;;3.25;2.60;;;;;;;11.37;100.00;99162.63;2187910;81;21008;-85
2022/09/01 04:04:38;;;;;;;5.58;2.67;;;;;;;11.48;100.00;99160.09;2186500;81;21593;-86
2022/09/01 04:07:39;;;;;;;4.72;2.98;;;;;;;11.59;100.00;99161.48;2187733;81;20964;-86
2022/09/01 04:10:40;;;;;;;4.75;2.90;;;;;;;11.60;100.00;99165.23;2187767;81;21019;-86
2022/09/01 04:13:41;;;;;;;3.15;2.85;;;;;;;11.61;100.00;99162.12;2187887;81;21069;-87
2022/09/01 04:20:07;;;;;;;3.02;2.80;;;;;;;11.65;100.00;99169.48;2187767;81;20989;-84
2022/09/01 04:23:09;;;;;;;5.42;2.75;;;;;;;11.67;100.00;99171.42;2186799;81;20960;-88
2022/09/01 04:26:09;;;;;;;3.17;2.87;;;;;;;11.65;100.00;99173.41;2186930;81;21127;-88
2022/09/01 04:29:10;;;;;;;2.62;2.42;;;;;;;11.65;100.00;99173.91;2187876;81;21523;-91
2022/09/01 04:32:11;;;;;;;2.42;2.22;;;;;;;11.65;100.00;99175.22;2187738;81;21494;-89
2022/09/01 04:35:15;;;;;;;4.03;2.42;;;;;;;11.68;100.00;99176.98;2187788;81;21029;-91
2022/09/01 04:38:15;;;;;;;3.30;3.00;;;;;;;11.72;100.00;99171.41;2187734;81;21012;-91
2022/09/01 04:41:16;;;;;;;2.72;2.52;;;;;;;11.72;100.00;99171.41;2187709;81;21067;-89
2022/09/01 04:44:17;;;;;;;2.42;2.20;;;;;;;11.78;100.00;99173.31;2185490;81;21009;-87
2022/09/01 04:47:18;;;;;;;3.52;2.40;;;;;;;11.82;100.00;99175.95;2187838;81;21574;-87
2022/09/01 04:50:20;;;;;;;4.00;2.50;;;;;;;11.88;100.00;99176.54;2187675;81;20976;-87
2022/09/01 04:53:23;;;;;;;3.67;2.65;;;;;;;11.95;100.00;99176.98;2187642;81;21079;-86
2022/09/01 04:56:24;;;;;;;2.25;2.15;;;;;;;12.04;100.00;99182.16;2187654;81;21360;-86
2022/09/01 04:59:26;;;;;;;3.83;2.45;;;;;;;12.12;100.00;99181.59;2187601;81;21507;-86
2022/09/01 05:02:27;;;;;;;3.30;2.37;;;;;;;12.18;100.00;99178.27;2187282;81;21579;-87
2022/09/01 05:05:28;;;;;;;2.87;2.50;;;;;;;12.28;100.00;99175.38;2187025;81;21531;-86
2022/09/01 05:08:32;;;;;;;3.58;1.87;;;;;;;12.36;100.00;99179.74;2186965;81;21012;-87
2022/09/01 05:11:32;;;;;;;2.90;2.05;;;;;;;12.39;100.00;99176.25;2187037;81;21003;-87
2022/09/01 05:14:33;;;;;;;5.25;3.22;;;;;;;12.43;100.00;99168.81;2187263;81;21035;-88
2022/09/01 05:17:34;;;;;;;3.27;2.15;;;;;;;12.45;100.00;99172.09;2187312;81;21012;-88
2022/09/01 05:20:37;;;;;;;2.42;2.22;;;;;;;12.47;100.00;99172.23;2187408;81;21522;-86
2022/09/01 05:23:39;;;;;;;3.20;2.22;;;;;;;12.56;100.00;99176.90;2187550;81;21587;-88
2022/09/01 05:26:39;;;;;;;6.05;2.22;;;;;;;12.70;100.00;99176.56;2187642;81;21015;-87
2022/09/01 05:29:40;;;;;;;4.20;2.60;;;;;;;12.85;100.00;99183.14;2187651;81;21016;-88
2022/09/01 05:32:42;;;;;;;5.03;2.70;;;;;;;12.91;100.00;99182.42;2187600;81;20968;-88
2022/09/01 05:35:43;;;;;;;5.17;3.42;;;;;;;13.07;100.00;99179.56;2187728;81;21036;-86
2022/09/01 05:38:44;;;;;;;5.67;4.37;;;;;;;13.32;100.00;99176.14;2187524;81;21119;-87
2022/09/01 05:41:47;;;;;;;3.42;2.17;;;;;;;13.53;100.00;99175.34;2187632;81;20944;-87
2022/09/01 05:44:48;;;;;;;3.72;2.40;;;;;;;13.74;100.00;99177.19;2187791;81;21112;-87
2022/09/01 05:47:51;;;;;;;3.30;2.00;;;;;;;13.91;100.00;99171.98;2187436;81;21562;-86
2022/09/01 05:50:56;;;;;;;3.75;1.90;;;;;;;13.95;100.00;99177.98;2187109;81;21078;-87
2022/09/01 05:53:57;;;;;;;4.50;1.82;;;;;;;13.93;100.00;99177.36;2186453;81;21670;-88
2022/09/01 05:56:57;;;;;;;2.20;1.52;;;;;;;13.92;100.00;99171.78;2185031;81;21611;-86
2022/09/01 05:59:58;;;;;;;2.67;1.40;;;;;;;14.01;100.00;99172.47;2187288;81;21103;-88
2022/09/01 06:02:59;;;;;;;4.25;2.05;;;;;;;14.02;100.00;99171.46;2187333;81;20980;-88
2022/09/01 06:06:00;;;;;;;1.65;1.55;;;;;;;14.05;100.00;99180.28;2154236;81;21103;-87
2022/09/01 06:09:01;;;;;;;2.98;1.45;;;;;;;14.14;100.00;99173.06;2187540;81;21475;-86
2022/09/01 06:12:02;;;;;;;1.60;1.50;;;;;;;14.21;100.00;99171.30;2188073;81;21011;-87
2022/09/01 06:15:02;;;;;;;3.22;1.57;;;;;;;14.22;100.00;99196.13;2187668;81;20987;-88
2022/09/01 06:18:04;;;;;;;1.95;1.67;;;;;;;14.24;100.00;99185.39;2187620;81;21467;-89
2022/09/01 06:21:07;;;;;;;4.50;1.15;;;;;;;14.31;100.00;99170.96;2187432;81;21471;-89
2022/09/01 06:24:08;;;;;;;1.02;0.85;;;;;;;14.31;100.00;99176.23;2187509;81;21650;-88
2022/09/01 06:27:08;;;;;;;1.45;1.30;;;;;;;14.32;100.00;99178.66;2187433;81;20964;-87
2022/09/01 06:30:13;;;;;;;1.62;1.52;;;;;;;14.39;100.00;99180.84;2187670;81;20998;-88
2022/09/01 06:33:12;;;;;;;1.60;1.25;;;;;;;14.45;100.00;99183.26;2187332;81;21044;-88
2022/09/01 06:36:15;;;;;;;2.87;1.47;;;;;;;14.44;100.00;99185.52;2187457;81;21005;-88
2022/09/01 06:39:18;;;;;;;2.67;1.25;;;;;;;14.45;100.00;99192.48;2187657;81;21080;-87
2022/09/01 06:42:22;;;;;;;3.67;1.20;;;;;;;14.47;100.00;99192.59;2187742;81;21052;-92
2022/09/01 06:45:22;;;;;;;2.15;1.15;;;;;;;14.51;100.00;99196.45;2187749;81;21111;-89
2022/09/01 06:48:22;;;;;;;4.50;1.12;;;;;;;14.56;100.00;99197.20;2187889;81;21526;-90
2022/09/01 06:51:24;;;;;;;1.45;1.25;;;;;;;14.60;100.00;99198.44;2187741;81;21003;-91
2022/09/01 06:54:25;;;;;;;1.72;1.27;;;;;;;14.60;100.00;99206.84;2187763;81;21052;-89
2022/09/01 06:57:26;;;;;;;1.55;0.85;;;;;;;14.63;100.00;99212.56;2187638;81;21019;-90
2022/09/01 07:00:27;;;;;;;0.90;0.88;;;;;;;14.70;100.00;99200.72;2187675;81;21532;-91
2022/09/01 07:03:28;;;;;;;2.02;0.65;;;;;;;14.78;100.00;99206.66;2187680;81;21006;-90
2022/09/01 07:06:29;;;;;;;1.20;0.82;;;;;;;14.85;100.00;99211.16;2187613;81;21000;-89
2022/09/01 07:09:30;;;;;;;1.57;0.72;;;;;;;14.90;100.00;99213.50;2187402;81;21124;-89
2022/09/01 07:12:31;;;;;;;2.17;0.85;;;;;;;14.94;100.00;99213.94;2187704;81;20968;-90
2022/09/01 07:15:32;;;;;;;0.78;0.72;;;;;;;15.00;100.00;99209.22;2187899;81;21304;-90
2022/09/01 07:18:33;;;;;;;1.12;0.88;;;;;;;15.08;100.00;99213.79;2188473;81;21026;-93
2022/09/01 07:21:34;;;;;;;1.30;0.70;;;;;;;15.12;100.00;99212.91;2188128;81;20992;-90
2022/09/01 07:24:34;;;;;;;1.35;0.88;;;;;;;15.19;100.00;99224.81;2187726;81;21008;-88
2022/09/01 07:27:35;;;;;;;1.75;0.57;;;;;;;15.23;100.00;99220.76;2187990;81;20972;-87
2022/09/01 07:30:36;;;;;;;1.07;0.72;;;;;;;15.27;100.00;99228.58;2187761;81;21504;-86
2022/09/01 07:33:37;;;;;;;0.60;0.60;;;;;;;15.32;100.00;99223.53;2187804;81;21019;-93
2022/09/01 07:36:38;;;;;;;2.25;0.80;;;;;;;15.42;100.00;99229.25;2187906;81;21003;-86
2022/09/01 07:39:43;;;;;;;0.82;0.60;;;;;;;15.50;100.00;99230.91;2187512;81;21092;-86
